sensor_id;sensor_type;location;lat;lon;timestamp;temperature;humidity
8914;DHT22;4492;48.736;9.092;2023-04-12T00:00:55;7.80;98.20
8914;DHT22;4492;48.736;9.092;2023-04-12T00:03:20;7.80;98.30
8914;DHT22;4492;48.736;9.092;2023-04-12T00:05:46;7.80;99.10
8914;DHT22;4492;48.736;9.092;2023-04-12T00:08:13;7.80;99.10
8914;DHT22;4492;48.736;9.092;2023-04-12T00:10:40;7.80;99.80
8914;DHT22;4492;48.736;9.092;2023-04-12T00:13:05;7.70;99.90
8914;DHT22;4492;48.736;9.092;2023-04-12T00:15:32;7.70;99.90
8914;DHT22;4492;48.736;9.092;2023-04-12T00:17:57;7.70;99.90
8914;DHT22;4492;48.736;9.092;2023-04-12T00:20:23;7.70;99.90
8914;DHT22;4492;48.736;9.092;2023-04-12T00:22:49;7.60;99.90
8914;DHT22;4492;48.736;9.092;2023-04-12T00:25:14;7.60;99.90
8914;DHT22;4492;48.736;9.092;2023-04-12T00:27:40;7.50;99.90
8914;DHT22;4492;48.736;9.092;2023-04-12T00:30:06;7.50;99.90
8914;DHT22;4492;48.736;9.092;2023-04-12T00:32:32;7.40;99.90
8914;DHT22;4492;48.736;9.092;2023-04-12T00:34:58;7.30;99.90
8914;DHT22;4492;48.736;9.092;2023-04-12T00:37:23;7.30;99.90
8914;DHT22;4492;48.736;9.092;2023-04-12T00:39:49;7.20;99.90
8914;DHT22;4492;48.736;9.092;2023-04-12T00:42:15;7.10;99.90
8914;DHT22;4492;48.736;9.092;2023-04-12T00:44:40;7.00;99.90
8914;DHT22;4492;48.736;9.092;2023-04-12T00:47:06;7.00;99.90
8914;DHT22;4492;48.736;9.092;2023-04-12T00:49:32;6.90;99.90
8914;DHT22;4492;48.736;9.092;2023-04-12T00:52:00;6.90;99.90
8914;DHT22;4492;48.736;9.092;2023-04-12T00:54:29;6.80;99.90
8914;DHT22;4492;48.736;9.092;2023-04-12T00:56:55;6.80;99.90
8914;DHT22;4492;48.736;9.092;2023-04-12T00:59:24;6.70;99.90
8914;DHT22;4492;48.736;9.092;2023-04-12T01:01:50;6.70;99.90
8914;DHT22;4492;48.736;9.092;2023-04-12T01:04:17;6.70;99.90
8914;DHT22;4492;48.736;9.092;2023-04-12T01:09:30;6.60;99.90
8914;DHT22;4492;48.736;9.092;2023-04-12T01:12:07;6.50;99.90
8914;DHT22;4492;48.736;9.092;2023-04-12T01:17:25;6.50;99.90
8914;DHT22;4492;48.736;9.092;2023-04-12T01:19:56;6.50;99.90
8914;DHT22;4492;48.736;9.092;2023-04-12T01:25:28;6.40;99.90
8914;DHT22;4492;48.736;9.092;2023-04-12T01:28:04;6.40;99.90
8914;DHT22;4492;48.736;9.092;2023-04-12T01:30:31;6.40;99.90
8914;DHT22;4492;48.736;9.092;2023-04-12T01:33:00;6.40;99.90
8914;DHT22;4492;48.736;9.092;2023-04-12T01:35:30;6.40;99.90
8914;DHT22;4492;48.736;9.092;2023-04-12T01:37:59;6.40;99.90
8914;DHT22;4492;48.736;9.092;2023-04-12T01:40:27;6.30;99.90
8914;DHT22;4492;48.736;9.092;2023-04-12T01:43:08;6.30;99.90
8914;DHT22;4492;48.736;9.092;2023-04-12T01:45:35;6.30;99.90
8914;DHT22;4492;48.736;9.092;2023-04-12T01:48:01;6.20;99.90
8914;DHT22;4492;48.736;9.092;2023-04-12T01:50:38;6.20;99.90
8914;DHT22;4492;48.736;9.092;2023-04-12T01:53:10;6.20;99.90
8914;DHT22;4492;48.736;9.092;2023-04-12T01:55:39;6.20;99.90
8914;DHT22;4492;48.736;9.092;2023-04-12T01:58:06;6.20;99.90
8914;DHT22;4492;48.736;9.092;2023-04-12T02:00:34;6.10;99.90
8914;DHT22;4492;48.736;9.092;2023-04-12T02:03:01;6.10;99.90
8914;DHT22;4492;48.736;9.092;2023-04-12T02:05:27;6.10;99.90
8914;DHT22;4492;48.736;9.092;2023-04-12T02:07:53;6.10;99.90
8914;DHT22;4492;48.736;9.092;2023-04-12T02:10:28;6.10;99.90
8914;DHT22;4492;48.736;9.092;2023-04-12T02:12:56;6.10;99.90
8914;DHT22;4492;48.736;9.092;2023-04-12T02:15:22;6.10;99.90
8914;DHT22;4492;48.736;9.092;2023-04-12T02:17:48;6.10;99.90
8914;DHT22;4492;48.736;9.092;2023-04-12T02:20:18;6.10;99.90
8914;DHT22;4492;48.736;9.092;2023-04-12T02:22:44;6.10;99.90
8914;DHT22;4492;48.736;9.092;2023-04-12T02:25:09;6.10;99.90
8914;DHT22;4492;48.736;9.092;2023-04-12T02:27:35;6.10;99.90
8914;DHT22;4492;48.736;9.092;2023-04-12T02:30:00;6.10;99.90
8914;DHT22;4492;48.736;9.092;2023-04-12T02:32:26;6.10;99.90
8914;DHT22;4492;48.736;9.092;2023-04-12T02:34:51;6.10;99.90
8914;DHT22;4492;48.736;9.092;2023-04-12T02:37:17;6.10;99.90
8914;DHT22;4492;48.736;9.092;2023-04-12T02:39:46;6.10;99.90
8914;DHT22;4492;48.736;9.092;2023-04-12T02:42:12;6.00;99.90
8914;DHT22;4492;48.736;9.092;2023-04-12T02:44:37;6.00;99.90
8914;DHT22;4492;48.736;9.092;2023-04-12T02:47:03;6.00;99.90
8914;DHT22;4492;48.736;9.092;2023-04-12T02:49:28;6.00;99.90
8914;DHT22;4492;48.736;9.092;2023-04-12T02:51:54;6.00;99.90
8914;DHT22;4492;48.736;9.092;2023-04-12T02:54:20;6.00;99.90
8914;DHT22;4492;48.736;9.092;2023-04-12T02:56:45;6.00;99.90
8914;DHT22;4492;48.736;9.092;2023-04-12T02:59:11;6.00;99.90
8914;DHT22;4492;48.736;9.092;2023-04-12T03:01:36;6.00;99.90
8914;DHT22;4492;48.736;9.092;2023-04-12T03:04:03;6.00;99.90
8914;DHT22;4492;48.736;9.092;2023-04-12T03:06:29;6.00;99.90
8914;DHT22;4492;48.736;9.092;2023-04-12T03:08:54;6.00;99.90
8914;DHT22;4492;48.736;9.092;2023-04-12T03:11:21;6.00;99.90
8914;DHT22;4492;48.736;9.092;2023-04-12T03:13:47;6.00;99.90
8914;DHT22;4492;48.736;9.092;2023-04-12T03:16:26;6.00;99.90
8914;DHT22;4492;48.736;9.092;2023-04-12T03:18:54;6.00;99.90
8914;DHT22;4492;48.736;9.092;2023-04-12T03:21:21;6.00;99.90
8914;DHT22;4492;48.736;9.092;2023-04-12T03:23:46;6.00;99.90
8914;DHT22;4492;48.736;9.092;2023-04-12T03:26:12;6.00;99.90
8914;DHT22;4492;48.736;9.092;2023-04-12T03:28:37;6.00;99.90
8914;DHT22;4492;48.736;9.092;2023-04-12T03:31:03;5.90;99.90
8914;DHT22;4492;48.736;9.092;2023-04-12T03:33:29;6.00;99.90
8914;DHT22;4492;48.736;9.092;2023-04-12T03:35:54;6.00;99.90
8914;DHT22;4492;48.736;9.092;2023-04-12T03:38:20;6.00;99.90
8914;DHT22;4492;48.736;9.092;2023-04-12T03:40:46;6.00;99.90
8914;DHT22;4492;48.736;9.092;2023-04-12T03:43:11;6.00;99.90
8914;DHT22;4492;48.736;9.092;2023-04-12T03:45:37;6.00;99.90
8914;DHT22;4492;48.736;9.092;2023-04-12T03:48:02;6.00;99.90
8914;DHT22;4492;48.736;9.092;2023-04-12T03:50:29;6.00;99.90
8914;DHT22;4492;48.736;9.092;2023-04-12T03:52:56;6.00;99.90
8914;DHT22;4492;48.736;9.092;2023-04-12T03:55:21;6.00;99.90
8914;DHT22;4492;48.736;9.092;2023-04-12T03:57:47;5.90;99.90
8914;DHT22;4492;48.736;9.092;2023-04-12T04:00:13;5.90;99.90
8914;DHT22;4492;48.736;9.092;2023-04-12T04:02:39;5.90;99.90
8914;DHT22;4492;48.736;9.092;2023-04-12T04:05:04;5.90;99.90
8914;DHT22;4492;48.736;9.092;2023-04-12T04:07:30;6.00;99.90
8914;DHT22;4492;48.736;9.092;2023-04-12T04:09:56;6.00;99.90
8914;DHT22;4492;48.736;9.092;2023-04-12T04:12:22;5.90;99.90
8914;DHT22;4492;48.736;9.092;2023-04-12T04:14:47;5.90;99.90
8914;DHT22;4492;48.736;9.092;2023-04-12T04:17:13;6.00;99.90
8914;DHT22;4492;48.736;9.092;2023-04-12T04:19:38;6.00;99.90
8914;DHT22;4492;48.736;9.092;2023-04-12T04:22:04;6.00;99.90
8914;DHT22;4492;48.736;9.092;2023-04-12T04:24:29;6.00;99.90
8914;DHT22;4492;48.736;9.092;2023-04-12T04:26:55;6.00;99.90
8914;DHT22;4492;48.736;9.092;2023-04-12T04:29:20;6.00;99.90
8914;DHT22;4492;48.736;9.092;2023-04-12T04:31:46;6.00;99.90
8914;DHT22;4492;48.736;9.092;2023-04-12T04:34:11;6.00;99.90
8914;DHT22;4492;48.736;9.092;2023-04-12T04:36:40;6.00;99.90
8914;DHT22;4492;48.736;9.092;2023-04-12T04:39:06;6.00;99.90
8914;DHT22;4492;48.736;9.092;2023-04-12T04:41:32;6.00;99.90
8914;DHT22;4492;48.736;9.092;2023-04-12T04:43:59;6.00;99.90
8914;DHT22;4492;48.736;9.092;2023-04-12T04:46:25;6.00;99.90
8914;DHT22;4492;48.736;9.092;2023-04-12T04:48:50;6.00;99.90
8914;DHT22;4492;48.736;9.092;2023-04-12T04:51:19;6.00;99.90
8914;DHT22;4492;48.736;9.092;2023-04-12T04:53:45;6.00;99.90
8914;DHT22;4492;48.736;9.092;2023-04-12T04:56:10;6.00;99.90
8914;DHT22;4492;48.736;9.092;2023-04-12T04:58:36;6.00;99.90
8914;DHT22;4492;48.736;9.092;2023-04-12T05:01:02;6.00;99.90
8914;DHT22;4492;48.736;9.092;2023-04-12T05:03:28;6.00;99.90
8914;DHT22;4492;48.736;9.092;2023-04-12T05:05:54;6.00;99.90
8914;DHT22;4492;48.736;9.092;2023-04-12T05:08:20;6.00;99.90
8914;DHT22;4492;48.736;9.092;2023-04-12T05:10:50;6.00;99.90
8914;DHT22;4492;48.736;9.092;2023-04-12T05:13:17;6.00;99.90
8914;DHT22;4492;48.736;9.092;2023-04-12T05:15:42;6.00;99.90
8914;DHT22;4492;48.736;9.092;2023-04-12T05:18:08;6.10;99.90
8914;DHT22;4492;48.736;9.092;2023-04-12T05:20:33;6.10;99.90
8914;DHT22;4492;48.736;9.092;2023-04-12T05:22:59;6.10;99.90
8914;DHT22;4492;48.736;9.092;2023-04-12T05:25:25;6.10;99.90
8914;DHT22;4492;48.736;9.092;2023-04-12T05:27:50;6.10;99.90
8914;DHT22;4492;48.736;9.092;2023-04-12T05:30:16;6.20;99.90
8914;DHT22;4492;48.736;9.092;2023-04-12T05:32:41;6.20;99.90
8914;DHT22;4492;48.736;9.092;2023-04-12T05:35:07;6.20;99.90
8914;DHT22;4492;48.736;9.092;2023-04-12T05:37:33;6.20;99.90
8914;DHT22;4492;48.736;9.092;2023-04-12T05:39:58;6.20;99.90
8914;DHT22;4492;48.736;9.092;2023-04-12T05:42:24;6.20;99.90
8914;DHT22;4492;48.736;9.092;2023-04-12T05:44:49;6.30;99.90
8914;DHT22;4492;48.736;9.092;2023-04-12T05:47:15;6.30;99.90
8914;DHT22;4492;48.736;9.092;2023-04-12T05:49:40;6.40;99.90
8914;DHT22;4492;48.736;9.092;2023-04-12T05:52:06;6.40;99.90
8914;DHT22;4492;48.736;9.092;2023-04-12T05:54:32;6.40;99.90
8914;DHT22;4492;48.736;9.092;2023-04-12T05:56:57;6.40;99.90
8914;DHT22;4492;48.736;9.092;2023-04-12T05:59:23;6.50;99.90
8914;DHT22;4492;48.736;9.092;2023-04-12T06:01:48;6.50;99.90
8914;DHT22;4492;48.736;9.092;2023-04-12T06:04:14;6.50;99.90
8914;DHT22;4492;48.736;9.092;2023-04-12T06:06:40;6.60;99.90
8914;DHT22;4492;48.736;9.092;2023-04-12T06:09:05;6.60;99.90
8914;DHT22;4492;48.736;9.092;2023-04-12T06:11:31;6.60;99.90
8914;DHT22;4492;48.736;9.092;2023-04-12T06:13:59;6.70;99.90
8914;DHT22;4492;48.736;9.092;2023-04-12T06:16:24;6.70;99.90
8914;DHT22;4492;48.736;9.092;2023-04-12T06:18:50;6.80;99.90
8914;DHT22;4492;48.736;9.092;2023-04-12T06:21:15;6.80;99.90
8914;DHT22;4492;48.736;9.092;2023-04-12T06:23:41;6.80;99.90
8914;DHT22;4492;48.736;9.092;2023-04-12T06:26:07;6.80;99.90
8914;DHT22;4492;48.736;9.092;2023-04-12T06:28:32;6.80;99.90
8914;DHT22;4492;48.736;9.092;2023-04-12T06:30:57;6.90;99.90
8914;DHT22;4492;48.736;9.092;2023-04-12T06:33:23;7.00;99.90
8914;DHT22;4492;48.736;9.092;2023-04-12T06:35:49;7.00;99.90
8914;DHT22;4492;48.736;9.092;2023-04-12T06:38:15;7.00;99.90
8914;DHT22;4492;48.736;9.092;2023-04-12T06:40:41;7.10;99.90
8914;DHT22;4492;48.736;9.092;2023-04-12T06:43:06;7.10;99.90
8914;DHT22;4492;48.736;9.092;2023-04-12T06:45:32;7.10;99.90
8914;DHT22;4492;48.736;9.092;2023-04-12T06:47:57;7.20;99.90
8914;DHT22;4492;48.736;9.092;2023-04-12T06:50:24;7.20;99.90
8914;DHT22;4492;48.736;9.092;2023-04-12T06:52:50;7.30;99.90
8914;DHT22;4492;48.736;9.092;2023-04-12T06:55:16;7.30;99.90
8914;DHT22;4492;48.736;9.092;2023-04-12T06:57:42;7.40;99.90
8914;DHT22;4492;48.736;9.092;2023-04-12T07:00:09;7.40;99.90
8914;DHT22;4492;48.736;9.092;2023-04-12T07:02:35;7.50;99.90
8914;DHT22;4492;48.736;9.092;2023-04-12T07:05:00;7.50;99.90
8914;DHT22;4492;48.736;9.092;2023-04-12T07:07:26;7.60;99.90
8914;DHT22;4492;48.736;9.092;2023-04-12T07:09:51;7.60;99.90
8914;DHT22;4492;48.736;9.092;2023-04-12T07:12:17;7.60;99.90
8914;DHT22;4492;48.736;9.092;2023-04-12T07:14:43;7.70;99.90
8914;DHT22;4492;48.736;9.092;2023-04-12T07:17:08;7.70;99.90
8914;DHT22;4492;48.736;9.092;2023-04-12T07:19:34;7.80;99.90
8914;DHT22;4492;48.736;9.092;2023-04-12T07:22:00;7.80;99.90
8914;DHT22;4492;48.736;9.092;2023-04-12T07:24:25;7.90;99.90
8914;DHT22;4492;48.736;9.092;2023-04-12T07:26:54;8.00;99.90
8914;DHT22;4492;48.736;9.092;2023-04-12T07:29:20;7.90;99.90
8914;DHT22;4492;48.736;9.092;2023-04-12T07:31:45;8.00;99.90
8914;DHT22;4492;48.736;9.092;2023-04-12T07:34:11;8.10;99.90
8914;DHT22;4492;48.736;9.092;2023-04-12T07:36:37;8.20;99.90
8914;DHT22;4492;48.736;9.092;2023-04-12T07:39:02;8.30;99.90
8914;DHT22;4492;48.736;9.092;2023-04-12T07:41:28;8.40;99.90
8914;DHT22;4492;48.736;9.092;2023-04-12T07:43:54;8.50;99.90
8914;DHT22;4492;48.736;9.092;2023-04-12T07:46:19;8.60;99.90
8914;DHT22;4492;48.736;9.092;2023-04-12T07:48:45;8.70;99.90
8914;DHT22;4492;48.736;9.092;2023-04-12T07:51:11;8.80;99.90
8914;DHT22;4492;48.736;9.092;2023-04-12T07:53:36;8.80;99.90
8914;DHT22;4492;48.736;9.092;2023-04-12T07:56:03;8.90;99.90
8914;DHT22;4492;48.736;9.092;2023-04-12T07:58:31;8.90;99.90
8914;DHT22;4492;48.736;9.092;2023-04-12T08:00:57;9.00;99.90
8914;DHT22;4492;48.736;9.092;2023-04-12T08:03:22;9.10;99.90
8914;DHT22;4492;48.736;9.092;2023-04-12T08:05:48;9.20;99.90
8914;DHT22;4492;48.736;9.092;2023-04-12T08:08:20;9.20;99.90
8914;DHT22;4492;48.736;9.092;2023-04-12T08:10:47;9.30;99.90
8914;DHT22;4492;48.736;9.092;2023-04-12T08:13:12;9.40;99.90
8914;DHT22;4492;48.736;9.092;2023-04-12T08:15:38;9.50;99.90
8914;DHT22;4492;48.736;9.092;2023-04-12T08:18:04;9.50;99.90
8914;DHT22;4492;48.736;9.092;2023-04-12T08:20:29;9.50;99.90
8914;DHT22;4492;48.736;9.092;2023-04-12T08:22:56;9.50;99.90
8914;DHT22;4492;48.736;9.092;2023-04-12T08:25:21;9.60;99.90
8914;DHT22;4492;48.736;9.092;2023-04-12T08:27:48;9.60;99.90
8914;DHT22;4492;48.736;9.092;2023-04-12T08:30:14;9.60;99.90
8914;DHT22;4492;48.736;9.092;2023-04-12T08:32:39;9.70;99.90
8914;DHT22;4492;48.736;9.092;2023-04-12T08:35:06;9.70;99.90
8914;DHT22;4492;48.736;9.092;2023-04-12T08:37:32;9.80;99.90
8914;DHT22;4492;48.736;9.092;2023-04-12T08:40:01;9.80;99.90
8914;DHT22;4492;48.736;9.092;2023-04-12T08:42:26;9.70;99.90
8914;DHT22;4492;48.736;9.092;2023-04-12T08:44:52;9.80;99.90
8914;DHT22;4492;48.736;9.092;2023-04-12T08:47:18;9.80;99.90
8914;DHT22;4492;48.736;9.092;2023-04-12T08:49:45;9.80;99.90
8914;DHT22;4492;48.736;9.092;2023-04-12T08:52:10;9.80;99.90
8914;DHT22;4492;48.736;9.092;2023-04-12T08:54:36;9.80;99.90
8914;DHT22;4492;48.736;9.092;2023-04-12T08:57:05;9.90;99.90
8914;DHT22;4492;48.736;9.092;2023-04-12T08:59:34;9.90;99.90
8914;DHT22;4492;48.736;9.092;2023-04-12T09:02:01;9.90;99.90
8914;DHT22;4492;48.736;9.092;2023-04-12T09:04:26;9.90;99.90
8914;DHT22;4492;48.736;9.092;2023-04-12T09:06:52;10.00;99.90
8914;DHT22;4492;48.736;9.092;2023-04-12T09:09:18;10.00;99.90
8914;DHT22;4492;48.736;9.092;2023-04-12T09:11:43;10.00;99.90
8914;DHT22;4492;48.736;9.092;2023-04-12T09:14:24;10.00;99.90
8914;DHT22;4492;48.736;9.092;2023-04-12T09:16:49;10.00;99.90
8914;DHT22;4492;48.736;9.092;2023-04-12T09:19:22;10.10;99.90
8914;DHT22;4492;48.736;9.092;2023-04-12T09:21:55;10.30;99.90
8914;DHT22;4492;48.736;9.092;2023-04-12T09:24:21;10.40;99.90
8914;DHT22;4492;48.736;9.092;2023-04-12T09:27:04;10.70;99.90
8914;DHT22;4492;48.736;9.092;2023-04-12T09:29:31;10.80;99.90
8914;DHT22;4492;48.736;9.092;2023-04-12T09:32:02;11.00;99.90
8914;DHT22;4492;48.736;9.092;2023-04-12T09:34:31;11.30;99.90
8914;DHT22;4492;48.736;9.092;2023-04-12T09:36:58;11.40;99.90
8914;DHT22;4492;48.736;9.092;2023-04-12T09:39:33;11.50;99.90
8914;DHT22;4492;48.736;9.092;2023-04-12T09:42:10;11.40;99.90
8914;DHT22;4492;48.736;9.092;2023-04-12T09:44:36;11.30;99.90
8914;DHT22;4492;48.736;9.092;2023-04-12T09:47:02;11.20;99.90
8914;DHT22;4492;48.736;9.092;2023-04-12T09:49:39;11.10;99.90
8914;DHT22;4492;48.736;9.092;2023-04-12T09:52:10;11.10;99.90
8914;DHT22;4492;48.736;9.092;2023-04-12T09:54:38;11.20;99.90
8914;DHT22;4492;48.736;9.092;2023-04-12T09:57:06;11.40;99.90
8914;DHT22;4492;48.736;9.092;2023-04-12T09:59:36;11.30;99.90
8914;DHT22;4492;48.736;9.092;2023-04-12T10:04:38;11.40;99.90
8914;DHT22;4492;48.736;9.092;2023-04-12T10:07:05;11.40;99.90
8914;DHT22;4492;48.736;9.092;2023-04-12T10:09:36;11.50;99.90
8914;DHT22;4492;48.736;9.092;2023-04-12T10:12:02;11.80;99.90
8914;DHT22;4492;48.736;9.092;2023-04-12T10:14:28;11.90;99.90
8914;DHT22;4492;48.736;9.092;2023-04-12T10:16:56;11.80;99.90
8914;DHT22;4492;48.736;9.092;2023-04-12T10:19:24;11.80;99.90
8914;DHT22;4492;48.736;9.092;2023-04-12T10:21:50;11.80;99.90
8914;DHT22;4492;48.736;9.092;2023-04-12T10:24:16;11.80;99.90
8914;DHT22;4492;48.736;9.092;2023-04-12T10:26:42;12.00;99.90
8914;DHT22;4492;48.736;9.092;2023-04-12T10:29:27;12.10;99.90
8914;DHT22;4492;48.736;9.092;2023-04-12T10:31:58;12.20;99.90
8914;DHT22;4492;48.736;9.092;2023-04-12T10:34:42;12.40;99.90
8914;DHT22;4492;48.736;9.092;2023-04-12T10:37:08;12.70;99.90
8914;DHT22;4492;48.736;9.092;2023-04-12T10:39:41;12.90;99.90
8914;DHT22;4492;48.736;9.092;2023-04-12T10:42:23;12.90;99.90
8914;DHT22;4492;48.736;9.092;2023-04-12T10:44:50;13.00;99.90
8914;DHT22;4492;48.736;9.092;2023-04-12T10:50:30;12.80;99.90
8914;DHT22;4492;48.736;9.092;2023-04-12T10:53:19;12.80;99.90
8914;DHT22;4492;48.736;9.092;2023-04-12T10:55:46;12.60;99.90
8914;DHT22;4492;48.736;9.092;2023-04-12T11:01:12;13.00;99.90
8914;DHT22;4492;48.736;9.092;2023-04-12T11:04:11;13.10;99.90
8914;DHT22;4492;48.736;9.092;2023-04-12T11:06:55;13.00;99.90
8914;DHT22;4492;48.736;9.092;2023-04-12T11:12:14;13.10;99.90
8914;DHT22;4492;48.736;9.092;2023-04-12T11:14:50;13.20;99.90
8914;DHT22;4492;48.736;9.092;2023-04-12T11:22:13;13.80;99.90
8914;DHT22;4492;48.736;9.092;2023-04-12T11:24:39;14.00;99.90
8914;DHT22;4492;48.736;9.092;2023-04-12T11:27:05;14.30;99.90
8914;DHT22;4492;48.736;9.092;2023-04-12T11:29:31;14.40;99.90
8914;DHT22;4492;48.736;9.092;2023-04-12T11:31:57;14.30;99.90
8914;DHT22;4492;48.736;9.092;2023-04-12T11:34:23;14.20;99.90
8914;DHT22;4492;48.736;9.092;2023-04-12T11:36:52;14.10;99.90
8914;DHT22;4492;48.736;9.092;2023-04-12T11:39:19;13.90;99.90
8914;DHT22;4492;48.736;9.092;2023-04-12T11:41:48;14.10;99.90
8914;DHT22;4492;48.736;9.092;2023-04-12T11:44:15;14.10;99.90
8914;DHT22;4492;48.736;9.092;2023-04-12T11:46:46;14.00;99.90
8914;DHT22;4492;48.736;9.092;2023-04-12T11:49:16;14.00;99.90
8914;DHT22;4492;48.736;9.092;2023-04-12T11:51:42;14.00;99.90
8914;DHT22;4492;48.736;9.092;2023-04-12T11:54:10;14.10;99.90
8914;DHT22;4492;48.736;9.092;2023-04-12T11:56:36;14.10;99.90
8914;DHT22;4492;48.736;9.092;2023-04-12T11:59:02;13.90;99.90
8914;DHT22;4492;48.736;9.092;2023-04-12T12:01:28;13.90;99.90
8914;DHT22;4492;48.736;9.092;2023-04-12T12:03:54;13.90;99.90
8914;DHT22;4492;48.736;9.092;2023-04-12T12:06:21;14.10;99.90
8914;DHT22;4492;48.736;9.092;2023-04-12T12:08:50;14.20;99.90
8914;DHT22;4492;48.736;9.092;2023-04-12T12:11:19;14.40;99.90
8914;DHT22;4492;48.736;9.092;2023-04-12T12:13:55;14.40;99.90
8914;DHT22;4492;48.736;9.092;2023-04-12T12:16:25;14.40;99.90
8914;DHT22;4492;48.736;9.092;2023-04-12T12:18:52;14.40;99.90
8914;DHT22;4492;48.736;9.092;2023-04-12T12:21:17;14.70;99.90
8914;DHT22;4492;48.736;9.092;2023-04-12T12:23:44;14.90;99.90
8914;DHT22;4492;48.736;9.092;2023-04-12T12:26:21;15.00;99.90
8914;DHT22;4492;48.736;9.092;2023-04-12T12:28:56;14.90;99.90
8914;DHT22;4492;48.736;9.092;2023-04-12T12:31:25;14.80;99.90
8914;DHT22;4492;48.736;9.092;2023-04-12T12:33:57;14.70;99.90
8914;DHT22;4492;48.736;9.092;2023-04-12T12:36:34;14.70;99.90
8914;DHT22;4492;48.736;9.092;2023-04-12T12:39:07;14.70;99.90
8914;DHT22;4492;48.736;9.092;2023-04-12T12:41:34;14.60;99.90
8914;DHT22;4492;48.736;9.092;2023-04-12T12:44:00;14.70;99.90
8914;DHT22;4492;48.736;9.092;2023-04-12T12:46:26;14.90;99.90
8914;DHT22;4492;48.736;9.092;2023-04-12T12:48:52;15.00;99.90
8914;DHT22;4492;48.736;9.092;2023-04-12T12:51:17;14.80;99.90
8914;DHT22;4492;48.736;9.092;2023-04-12T12:53:44;14.70;99.90
8914;DHT22;4492;48.736;9.092;2023-04-12T12:56:11;14.60;99.90
8914;DHT22;4492;48.736;9.092;2023-04-12T12:58:37;14.30;99.90
8914;DHT22;4492;48.736;9.092;2023-04-12T13:01:03;14.40;99.90
8914;DHT22;4492;48.736;9.092;2023-04-12T13:03:29;14.40;99.90
8914;DHT22;4492;48.736;9.092;2023-04-12T13:05:55;14.50;99.90
8914;DHT22;4492;48.736;9.092;2023-04-12T13:08:21;14.60;99.90
8914;DHT22;4492;48.736;9.092;2023-04-12T13:10:47;14.70;99.90
8914;DHT22;4492;48.736;9.092;2023-04-12T13:13:12;14.90;99.90
8914;DHT22;4492;48.736;9.092;2023-04-12T13:15:38;14.90;99.90
8914;DHT22;4492;48.736;9.092;2023-04-12T13:18:03;14.80;99.90
8914;DHT22;4492;48.736;9.092;2023-04-12T13:20:29;14.60;99.90
8914;DHT22;4492;48.736;9.092;2023-04-12T13:22:55;14.30;99.90
8914;DHT22;4492;48.736;9.092;2023-04-12T13:25:21;14.20;99.90
8914;DHT22;4492;48.736;9.092;2023-04-12T13:27:47;14.00;99.90
8914;DHT22;4492;48.736;9.092;2023-04-12T13:30:14;14.00;99.90
8914;DHT22;4492;48.736;9.092;2023-04-12T13:32:39;14.00;99.90
8914;DHT22;4492;48.736;9.092;2023-04-12T13:35:05;14.10;99.90
8914;DHT22;4492;48.736;9.092;2023-04-12T13:37:32;14.40;99.90
8914;DHT22;4492;48.736;9.092;2023-04-12T13:39:57;14.40;99.90
8914;DHT22;4492;48.736;9.092;2023-04-12T13:42:23;14.50;99.90
8914;DHT22;4492;48.736;9.092;2023-04-12T13:44:48;14.70;99.90
8914;DHT22;4492;48.736;9.092;2023-04-12T13:47:15;14.50;99.90
8914;DHT22;4492;48.736;9.092;2023-04-12T13:49:40;14.50;99.90
8914;DHT22;4492;48.736;9.092;2023-04-12T13:52:06;14.40;99.90
8914;DHT22;4492;48.736;9.092;2023-04-12T13:54:32;14.40;99.90
8914;DHT22;4492;48.736;9.092;2023-04-12T13:56:57;14.30;99.90
8914;DHT22;4492;48.736;9.092;2023-04-12T13:59:24;14.20;99.90
8914;DHT22;4492;48.736;9.092;2023-04-12T14:01:50;13.90;99.90
8914;DHT22;4492;48.736;9.092;2023-04-12T14:04:15;13.70;99.90
8914;DHT22;4492;48.736;9.092;2023-04-12T14:06:41;13.60;99.90
8914;DHT22;4492;48.736;9.092;2023-04-12T14:09:07;13.70;99.90
8914;DHT22;4492;48.736;9.092;2023-04-12T14:11:45;13.80;99.90
8914;DHT22;4492;48.736;9.092;2023-04-12T14:14:11;14.10;99.90
8914;DHT22;4492;48.736;9.092;2023-04-12T14:16:37;14.50;99.90
8914;DHT22;4492;48.736;9.092;2023-04-12T14:19:02;15.10;99.90
8914;DHT22;4492;48.736;9.092;2023-04-12T14:21:28;15.40;99.20
8914;DHT22;4492;48.736;9.092;2023-04-12T14:23:54;15.50;99.20
8914;DHT22;4492;48.736;9.092;2023-04-12T14:26:20;15.50;98.50
8914;DHT22;4492;48.736;9.092;2023-04-12T14:28:45;15.40;98.60
8914;DHT22;4492;48.736;9.092;2023-04-12T14:31:14;15.10;98.40
8914;DHT22;4492;48.736;9.092;2023-04-12T14:33:40;15.00;99.30
8914;DHT22;4492;48.736;9.092;2023-04-12T14:36:06;15.00;98.90
8914;DHT22;4492;48.736;9.092;2023-04-12T14:38:32;15.00;99.30
8914;DHT22;4492;48.736;9.092;2023-04-12T14:40:58;15.00;98.70
8914;DHT22;4492;48.736;9.092;2023-04-12T14:43:24;14.90;98.60
8914;DHT22;4492;48.736;9.092;2023-04-12T14:45:50;14.80;98.80
8914;DHT22;4492;48.736;9.092;2023-04-12T14:48:15;14.70;98.80
8914;DHT22;4492;48.736;9.092;2023-04-12T14:50:41;14.60;98.90
8914;DHT22;4492;48.736;9.092;2023-04-12T14:53:06;14.50;99.40
8914;DHT22;4492;48.736;9.092;2023-04-12T14:55:34;14.40;99.40
8914;DHT22;4492;48.736;9.092;2023-04-12T14:57:59;14.30;99.10
8914;DHT22;4492;48.736;9.092;2023-04-12T15:00:25;14.20;99.90
8914;DHT22;4492;48.736;9.092;2023-04-12T15:02:54;14.10;99.90
8914;DHT22;4492;48.736;9.092;2023-04-12T15:05:19;14.10;99.90
8914;DHT22;4492;48.736;9.092;2023-04-12T15:07:45;14.10;99.90
8914;DHT22;4492;48.736;9.092;2023-04-12T15:10:10;14.00;99.90
8914;DHT22;4492;48.736;9.092;2023-04-12T15:12:38;13.80;99.90
8914;DHT22;4492;48.736;9.092;2023-04-12T15:15:04;13.70;99.90
8914;DHT22;4492;48.736;9.092;2023-04-12T15:17:31;13.60;99.90
8914;DHT22;4492;48.736;9.092;2023-04-12T15:19:58;13.40;99.90
8914;DHT22;4492;48.736;9.092;2023-04-12T15:22:24;12.30;99.90
8914;DHT22;4492;48.736;9.092;2023-04-12T15:24:51;11.20;99.90
8914;DHT22;4492;48.736;9.092;2023-04-12T15:27:17;10.30;99.90
8914;DHT22;4492;48.736;9.092;2023-04-12T15:29:42;9.80;99.90
8914;DHT22;4492;48.736;9.092;2023-04-12T15:32:08;9.40;99.90
8914;DHT22;4492;48.736;9.092;2023-04-12T15:34:34;9.10;99.90
8914;DHT22;4492;48.736;9.092;2023-04-12T15:36:59;9.00;99.90
8914;DHT22;4492;48.736;9.092;2023-04-12T15:39:25;8.80;99.90
8914;DHT22;4492;48.736;9.092;2023-04-12T15:41:51;8.80;99.90
8914;DHT22;4492;48.736;9.092;2023-04-12T15:44:17;8.70;99.90
8914;DHT22;4492;48.736;9.092;2023-04-12T15:46:42;8.70;99.90
8914;DHT22;4492;48.736;9.092;2023-04-12T15:49:09;8.70;99.90
8914;DHT22;4492;48.736;9.092;2023-04-12T15:51:34;8.70;99.90
8914;DHT22;4492;48.736;9.092;2023-04-12T15:54:00;8.80;99.90
8914;DHT22;4492;48.736;9.092;2023-04-12T15:56:26;9.00;99.90
8914;DHT22;4492;48.736;9.092;2023-04-12T15:58:53;9.10;99.90
8914;DHT22;4492;48.736;9.092;2023-04-12T16:01:20;9.30;99.90
8914;DHT22;4492;48.736;9.092;2023-04-12T16:03:46;9.50;99.90
8914;DHT22;4492;48.736;9.092;2023-04-12T16:06:17;9.60;99.90
8914;DHT22;4492;48.736;9.092;2023-04-12T16:08:51;9.70;99.90
8914;DHT22;4492;48.736;9.092;2023-04-12T16:11:19;9.80;99.90
8914;DHT22;4492;48.736;9.092;2023-04-12T16:13:45;9.80;99.90
8914;DHT22;4492;48.736;9.092;2023-04-12T16:16:16;9.90;99.90
8914;DHT22;4492;48.736;9.092;2023-04-12T16:18:45;9.80;99.90
8914;DHT22;4492;48.736;9.092;2023-04-12T16:21:12;9.80;99.90
8914;DHT22;4492;48.736;9.092;2023-04-12T16:23:44;9.80;99.90
8914;DHT22;4492;48.736;9.092;2023-04-12T16:26:10;9.80;99.90
8914;DHT22;4492;48.736;9.092;2023-04-12T16:28:38;9.90;99.90
8914;DHT22;4492;48.736;9.092;2023-04-12T16:31:10;9.90;99.90
8914;DHT22;4492;48.736;9.092;2023-04-12T16:33:35;9.90;99.90
8914;DHT22;4492;48.736;9.092;2023-04-12T16:36:01;10.00;99.90